Time,TemperatureF,DewpointF,PressureIn,WindDirection,WindDirectionDegrees,WindSpeedMPH,WindSpeedGustMPH,Humidity,HourlyPrecipIn,Conditions,Clouds,dailyrainin,SolarRadiationWatts/m^2,SoftwareType,DateUTC
2013-03-13 00:00:00,30.0,25.0,-100.00,SW,225,8.0,-999.0,80,-99.99,,,-99.99,0.000000,,2013-03-13 04:00:00,
2013-03-13 00:32:00,30.0,25.0,-100.00,SW,225,8.0,-999.0,80,-99.99,,,-99.99,0.000000,,2013-03-13 04:32:00,
2013-03-13 00:43:00,30.0,25.0,-100.00,SW,225,8.0,-999.0,80,-99.99,,,-99.99,0.000000,,2013-03-13 04:43:00,
2013-03-13 00:53:00,30.0,25.0,-100.00,SW,225,8.0,-999.0,80,-99.99,,,-99.99,0.000000,,2013-03-13 04:53:00,
2013-03-13 01:00:00,30.0,27.0,-100.00,WSW,247,9.0,-999.0,88,-99.99,,,-99.99,0.000000,,2013-03-13 05:00:00,
2013-03-13 01:43:00,30.0,27.0,-100.00,WSW,247,9.0,-999.0,88,-99.99,,,-99.99,0.000000,,2013-03-13 05:43:00,
2013-03-13 01:53:00,30.0,27.0,-100.00,WSW,247,9.0,-999.0,88,-99.99,,,-99.99,0.000000,,2013-03-13 05:53:00,
2013-03-13 02:00:00,29.0,26.0,-100.00,WSW,247,8.0,-999.0,87,-99.99,,,-99.99,0.000000,,2013-03-13 06:00:00,
2013-03-13 02:43:00,29.0,26.0,-100.00,WSW,247,8.0,-999.0,87,-99.99,,,-99.99,0.000000,,2013-03-13 06:43:00,
2013-03-13 02:53:00,29.0,26.0,-100.00,WSW,247,8.0,-999.0,87,-99.99,,,-99.99,0.000000,,2013-03-13 06:53:00,
2013-03-13 03:00:00,30.0,26.0,-100.00,WSW,247,10.0,-999.0,85,-99.99,,,-99.99,0.000000,,2013-03-13 07:00:00,
2013-03-13 03:43:00,30.0,26.0,-100.00,WSW,247,10.0,-999.0,85,-99.99,,,-99.99,0.000000,,2013-03-13 07:43:00,
2013-03-13 03:53:00,30.0,26.0,-100.00,WSW,247,10.0,-999.0,85,-99.99,,,-99.99,0.000000,,2013-03-13 07:53:00,
2013-03-13 04:00:00,29.0,24.0,-100.00,WSW,247,12.0,-999.0,82,-99.99,,,-99.99,0.000000,,2013-03-13 08:00:00,
2013-03-13 04:43:00,29.0,24.0,-100.00,WSW,247,12.0,-999.0,82,-99.99,,,-99.99,0.000000,,2013-03-13 08:43:00,
2013-03-13 04:54:00,29.0,24.0,-100.00,WSW,247,12.0,-999.0,82,-99.99,,,-99.99,0.000000,,2013-03-13 08:54:00,
2013-03-13 05:00:00,29.0,24.0,-100.00,WNW,292,10.0,-999.0,82,-99.99,,,-99.99,0.000000,,2013-03-13 09:00:00,
2013-03-13 05:42:00,29.0,24.0,-100.00,WNW,292,10.0,-999.0,82,-99.99,,,-99.99,0.000000,,2013-03-13 09:42:00,
2013-03-13 05:52:00,29.0,24.0,-100.00,WNW,292,10.0,-999.0,82,-99.99,,,-99.99,0.000000,,2013-03-13 09:52:00,
2013-03-13 06:00:00,28.0,24.0,-100.00,WNW,292,8.0,-999.0,86,-99.99,,,-99.99,0.000000,,2013-03-13 10:00:00,
2013-03-13 06:42:00,28.0,24.0,-100.00,WNW,292,8.0,-999.0,86,-99.99,,,-99.99,0.000000,,2013-03-13 10:42:00,
2013-03-13 06:52:00,28.0,24.0,-100.00,WNW,292,8.0,-999.0,86,-99.99,,,-99.99,0.000000,,2013-03-13 10:52:00,
2013-03-13 07:00:00,28.0,23.0,-100.00,WNW,292,10.0,-999.0,81,-99.99,,,-99.99,0.000000,,2013-03-13 11:00:00,
2013-03-13 07:32:00,28.0,23.0,-100.00,WNW,292,10.0,-999.0,81,-99.99,,,-99.99,0.000000,,2013-03-13 11:32:00,
2013-03-13 07:42:00,28.0,23.0,-100.00,WNW,292,10.0,-999.0,81,-99.99,,,-99.99,0.000000,,2013-03-13 11:42:00,
2013-03-13 07:53:00,28.0,23.0,-100.00,WNW,292,10.0,-999.0,81,-99.99,,,-99.99,0.000000,,2013-03-13 11:53:00,
2013-03-13 08:00:00,28.0,23.0,-100.00,WNW,292,11.0,-999.0,81,-99.99,,,-99.99,1.160000,,2013-03-13 12:00:00,
2013-03-13 08:42:00,28.0,23.0,-100.00,WNW,292,11.0,-999.0,81,-99.99,,,-99.99,1.160000,,2013-03-13 12:42:00,
2013-03-13 08:53:00,28.0,23.0,-100.00,WNW,292,11.0,-999.0,81,-99.99,,,-99.99,1.160000,,2013-03-13 12:53:00,
2013-03-13 09:00:00,27.0,21.0,-100.00,NW,315,13.0,-999.0,77,-99.99,,,-99.99,42.919998,,2013-03-13 13:00:00,
2013-03-13 09:43:00,27.0,21.0,-100.00,NW,315,13.0,-999.0,77,-99.99,,,-99.99,42.919998,,2013-03-13 13:43:00,
2013-03-13 09:53:00,27.0,21.0,-100.00,NW,315,13.0,-999.0,77,-99.99,,,-99.99,42.919998,,2013-03-13 13:53:00,
2013-03-13 10:00:00,26.0,17.0,-100.00,NW,315,12.0,-999.0,67,-99.99,,,-99.99,214.600006,,2013-03-13 14:00:00,
2013-03-13 10:43:00,26.0,17.0,-100.00,NW,315,12.0,-999.0,67,-99.99,,,-99.99,214.600006,,2013-03-13 14:43:00,
2013-03-13 10:53:00,26.0,17.0,-100.00,NW,315,12.0,-999.0,67,-99.99,,,-99.99,214.600006,,2013-03-13 14:53:00,
2013-03-13 11:00:00,28.0,16.0,-100.00,NW,315,15.0,-999.0,61,-99.99,,,-99.99,403.679993,,2013-03-13 15:00:00,
2013-03-13 11:43:00,28.0,16.0,-100.00,NW,315,15.0,-999.0,61,-99.99,,,-99.99,403.679993,,2013-03-13 15:43:00,
2013-03-13 11:53:00,28.0,16.0,-100.00,NW,315,15.0,-999.0,61,-99.99,,,-99.99,403.679993,,2013-03-13 15:53:00,
2013-03-13 12:00:00,28.0,16.0,-100.00,NW,315,13.0,-999.0,61,-99.99,,,-99.99,325.959991,,2013-03-13 16:00:00,
2013-03-13 12:42:00,28.0,16.0,-100.00,NW,315,13.0,-999.0,61,-99.99,,,-99.99,325.959991,,2013-03-13 16:42:00,
2013-03-13 12:52:00,28.0,16.0,-100.00,NW,315,13.0,-999.0,61,-99.99,,,-99.99,325.959991,,2013-03-13 16:52:00,
2013-03-13 13:00:00,29.0,19.0,-100.00,NW,315,14.0,-999.0,65,-99.99,,,-99.99,365.399994,,2013-03-13 17:00:00,
2013-03-13 13:43:00,29.0,19.0,-100.00,NW,315,14.0,-999.0,65,-99.99,,,-99.99,365.399994,,2013-03-13 17:43:00,
2013-03-13 13:53:00,29.0,19.0,-100.00,NW,315,14.0,-999.0,65,-99.99,,,-99.99,365.399994,,2013-03-13 17:53:00,
2013-03-13 14:00:00,31.0,17.0,-100.00,NW,315,16.0,-999.0,57,-99.99,,,-99.99,544.039978,,2013-03-13 18:00:00,
2013-03-13 14:43:00,31.0,17.0,-100.00,NW,315,16.0,-999.0,57,-99.99,,,-99.99,544.039978,,2013-03-13 18:43:00,
2013-03-13 14:52:00,31.0,17.0,-100.00,NW,315,16.0,-999.0,57,-99.99,,,-99.99,544.039978,,2013-03-13 18:52:00,
2013-03-13 15:00:00,30.0,17.0,-100.00,NW,315,15.0,-999.0,57,-99.99,,,-99.99,266.799988,,2013-03-13 19:00:00,
2013-03-13 15:43:00,30.0,17.0,-100.00,NW,315,15.0,-999.0,57,-99.99,,,-99.99,266.799988,,2013-03-13 19:43:00,
2013-03-13 15:53:00,30.0,17.0,-100.00,NW,315,15.0,-999.0,57,-99.99,,,-99.99,266.799988,,2013-03-13 19:53:00,
2013-03-13 16:00:00,30.0,17.0,-100.00,NW,315,15.0,-999.0,59,-99.99,,,-99.99,223.880005,,2013-03-13 20:00:00,
2013-03-13 16:42:00,30.0,17.0,-100.00,NW,315,15.0,-999.0,59,-99.99,,,-99.99,223.880005,,2013-03-13 20:42:00,
2013-03-13 16:52:00,30.0,17.0,-100.00,NW,315,15.0,-999.0,59,-99.99,,,-99.99,223.880005,,2013-03-13 20:52:00,
2013-03-13 17:00:00,30.0,18.0,-100.00,NW,315,13.0,-999.0,60,-99.99,,,-99.99,244.759995,,2013-03-13 21:00:00,
2013-03-13 17:42:00,30.0,18.0,-100.00,NW,315,13.0,-999.0,60,-99.99,,,-99.99,244.759995,,2013-03-13 21:42:00,
2013-03-13 17:52:00,30.0,18.0,-100.00,NW,315,13.0,-999.0,60,-99.99,,,-99.99,244.759995,,2013-03-13 21:52:00,
2013-03-13 18:00:00,31.0,20.0,-100.00,NW,315,14.0,-999.0,63,-99.99,,,-99.99,247.080002,,2013-03-13 22:00:00,
2013-03-13 18:42:00,31.0,20.0,-100.00,NW,315,14.0,-999.0,63,-99.99,,,-99.99,247.080002,,2013-03-13 22:42:00,
2013-03-13 18:52:00,31.0,20.0,-100.00,NW,315,14.0,-999.0,63,-99.99,,,-99.99,247.080002,,2013-03-13 22:52:00,
2013-03-13 19:00:00,31.0,18.0,-100.00,NW,315,12.0,-999.0,58,-99.99,,,-99.99,128.759995,,2013-03-13 23:00:00,
2013-03-13 19:43:00,31.0,18.0,-100.00,NW,315,12.0,-999.0,58,-99.99,,,-99.99,128.759995,,2013-03-13 23:43:00,
2013-03-13 19:52:00,31.0,18.0,-100.00,NW,315,12.0,-999.0,58,-99.99,,,-99.99,128.759995,,2013-03-13 23:52:00,
2013-03-13 20:00:00,30.0,15.0,-100.00,NW,315,13.0,-999.0,53,-99.99,,,-99.99,18.559999,,2013-03-14 00:00:00,
2013-03-13 20:42:00,30.0,15.0,-100.00,NW,315,13.0,-999.0,53,-99.99,,,-99.99,18.559999,,2013-03-14 00:42:00,
2013-03-13 20:53:00,30.0,15.0,-100.00,NW,315,13.0,-999.0,53,-99.99,,,-99.99,18.559999,,2013-03-14 00:53:00,
2013-03-13 21:00:00,29.0,16.0,-100.00,NW,315,11.0,-999.0,59,-99.99,,,-99.99,0.000000,,2013-03-14 01:00:00,
2013-03-13 21:42:00,29.0,16.0,-100.00,NW,315,11.0,-999.0,59,-99.99,,,-99.99,0.000000,,2013-03-14 01:42:00,
2013-03-13 21:53:00,29.0,16.0,-100.00,NW,315,11.0,-999.0,59,-99.99,,,-99.99,0.000000,,2013-03-14 01:53:00,
2013-03-13 22:00:00,28.0,17.0,-100.00,WNW,292,12.0,-999.0,62,-99.99,,,-99.99,0.000000,,2013-03-14 02:00:00,
2013-03-13 23:42:00,27.0,16.0,-100.00,NW,315,11.0,-999.0,63,-99.99,,,-99.99,0.000000,,2013-03-14 03:42:00,
2013-03-13 23:53:00,27.0,16.0,-100.00,NW,315,11.0,-999.0,63,-99.99,,,-99.99,0.000000,,2013-03-14 03:53:00,